Time;durP1;ratioP1;P1;durP2;ratioP2;P2;SDS_P1;SDS_P2;PMS_P1;PMS_P2;Temp;Humidity;BMP_temperature;BMP_pressure;BME280_temperature;BME280_humidity;BME280_pressure;Samples;Min_cycle;Max_cycle;Signal;HPM_P1;HPM_P2
2023/02/26 00:00:30;;;;;;;59.95;5.38;;;;;;;;;;5051179;28;20213;-66
2023/02/26 00:02:58;;;;;;;63.72;5.75;;;;;;;;;;5054648;28;20242;-66
2023/02/26 00:05:25;;;;;;;67.20;5.70;;;;;;;;;;5055091;28;20228;-66
2023/02/26 00:07:52;;;;;;;60.10;5.85;;;;;;;;;;5055098;28;20211;-66
2023/02/26 00:10:19;;;;;;;61.15;5.45;;;;;;;;;;5054417;28;20202;-66
2023/02/26 00:12:46;;;;;;;62.63;5.63;;;;;;;;;;5054972;28;20639;-66
2023/02/26 00:15:16;;;;;;;61.83;5.70;;;;;;;;;;5054883;28;20222;-66
2023/02/26 00:17:47;;;;;;;61.35;5.78;;;;;;;;;;5054779;28;20296;-66
2023/02/26 00:20:15;;;;;;;62.50;5.38;;;;;;;;;;5054183;28;20543;-66
2023/02/26 00:22:43;;;;;;;61.67;6.30;;;;;;;;;;5054001;28;20302;-66
2023/02/26 00:25:11;;;;;;;60.25;4.90;;;;;;;;;;5054194;28;20233;-66
2023/02/26 00:27:38;;;;;;;60.83;6.07;;;;;;;;;;5054567;28;20227;-66
2023/02/26 00:30:06;;;;;;;61.75;5.40;;;;;;;;;;5053716;28;20203;-66
2023/02/26 00:32:34;;;;;;;60.80;5.18;;;;;;;;;;5054128;28;20219;-66
2023/02/26 00:35:03;;;;;;;60.40;5.50;;;;;;;;;;5054002;28;20231;-66
2023/02/26 00:37:34;;;;;;;63.65;5.70;;;;;;;;;;5053710;28;20213;-66
2023/02/26 00:40:09;;;;;;;60.67;5.60;;;;;;;;;;5053839;28;20207;-66
2023/02/26 00:42:36;;;;;;;61.38;4.78;;;;;;;;;;5053930;28;20203;-66
2023/02/26 00:45:04;;;;;;;61.30;5.22;;;;;;;;;;5053523;28;20236;-66
2023/02/26 00:47:34;;;;;;;61.80;5.70;;;;;;;;;;5053761;28;20209;-66
2023/02/26 00:50:12;;;;;;;63.17;5.63;;;;;;;;;;5053333;28;20233;-66
2023/02/26 00:52:42;;;;;;;60.55;5.20;;;;;;;;;;5053984;28;20555;-66
2023/02/26 00:55:09;;;;;;;61.00;6.15;;;;;;;;;;5053497;28;20715;-66
2023/02/26 00:57:36;;;;;;;61.53;6.72;;;;;;;;;;5054193;28;20210;-66
2023/02/26 01:00:06;;;;;;;60.28;5.75;;;;;;;;;;5054061;28;20670;-66
2023/02/26 01:02:34;;;;;;;60.10;5.60;;;;;;;;;;5054485;28;20205;-66
2023/02/26 01:08:10;;;;;;;63.65;6.18;;;;;;;;;;5052531;28;20184;-66
2023/02/26 01:10:37;;;;;;;60.42;6.07;;;;;;;;;;5053865;28;20544;-66
2023/02/26 01:13:04;;;;;;;76.10;6.63;;;;;;;;;;5052676;28;20701;-66
2023/02/26 01:15:32;;;;;;;62.47;6.30;;;;;;;;;;5053094;28;20222;-66
2023/02/26 01:18:03;;;;;;;61.85;6.53;;;;;;;;;;5053176;28;20202;-66
2023/02/26 01:20:35;;;;;;;61.22;6.70;;;;;;;;;;5053023;28;20210;-66
2023/02/26 01:23:04;;;;;;;60.47;6.10;;;;;;;;;;5053076;28;20245;-66
2023/02/26 01:25:36;;;;;;;66.88;6.20;;;;;;;;;;5052813;28;20232;-66
2023/02/26 01:28:03;;;;;;;60.60;6.00;;;;;;;;;;5052707;28;20671;-66
2023/02/26 01:30:31;;;;;;;62.75;6.18;;;;;;;;;;5052810;28;20202;-66
2023/02/26 01:33:01;;;;;;;62.83;6.35;;;;;;;;;;5052932;28;20209;-66
2023/02/26 01:35:33;;;;;;;61.03;5.72;;;;;;;;;;5052845;28;20233;-66
2023/02/26 01:38:03;;;;;;;61.85;5.82;;;;;;;;;;5052773;28;20696;-66
2023/02/26 01:40:53;;;;;;;62.00;6.18;;;;;;;;;;5052330;28;20214;-66
2023/02/26 01:43:23;;;;;;;61.35;6.38;;;;;;;;;;5052744;28;20210;-66
2023/02/26 01:45:55;;;;;;;62.35;5.78;;;;;;;;;;5052656;28;20236;-66
2023/02/26 01:48:32;;;;;;;60.55;6.25;;;;;;;;;;5052565;28;20210;-66
2023/02/26 01:50:59;;;;;;;61.88;6.10;;;;;;;;;;5052390;28;20209;-66
2023/02/26 01:53:27;;;;;;;63.05;6.13;;;;;;;;;;5052746;28;20210;-66
2023/02/26 01:55:57;;;;;;;61.35;5.30;;;;;;;;;;5052469;28;20230;-66
2023/02/26 01:58:26;;;;;;;63.13;7.28;;;;;;;;;;5052511;28;20210;-66
2023/02/26 02:00:53;;;;;;;63.15;5.90;;;;;;;;;;5052161;28;20208;-66
2023/02/26 02:03:21;;;;;;;61.95;6.50;;;;;;;;;;5052072;28;20206;-66
2023/02/26 02:05:50;;;;;;;62.70;6.55;;;;;;;;;;5052495;28;20230;-66
2023/02/26 02:08:17;;;;;;;65.05;6.07;;;;;;;;;;5052521;28;20209;-66
2023/02/26 02:10:45;;;;;;;61.00;6.00;;;;;;;;;;5051981;28;20202;-66
2023/02/26 02:13:20;;;;;;;61.38;6.30;;;;;;;;;;5052097;28;20709;-66
2023/02/26 02:15:49;;;;;;;64.00;6.82;;;;;;;;;;5051923;28;20240;-66
2023/02/26 02:18:18;;;;;;;60.28;6.05;;;;;;;;;;5052209;28;20217;-66
2023/02/26 02:20:57;;;;;;;64.43;6.65;;;;;;;;;;5051973;28;20201;-66
2023/02/26 02:23:31;;;;;;;64.80;7.10;;;;;;;;;;5051769;28;20214;-66
2023/02/26 02:26:12;;;;;;;63.90;6.95;;;;;;;;;;5051921;28;20240;-66
2023/02/26 02:28:45;;;;;;;60.10;5.80;;;;;;;;;;5051835;28;20205;-66
2023/02/26 02:31:16;;;;;;;65.97;6.50;;;;;;;;;;5052054;28;20206;-66
2023/02/26 02:33:47;;;;;;;63.03;7.15;;;;;;;;;;5051838;28;20202;-66
2023/02/26 02:36:17;;;;;;;63.70;6.07;;;;;;;;;;5051889;28;20230;-66
2023/02/26 02:38:47;;;;;;;62.47;6.68;;;;;;;;;;5051303;28;20693;-65
2023/02/26 02:41:17;;;;;;;61.83;6.25;;;;;;;;;;5052103;28;20201;-66
2023/02/26 02:43:45;;;;;;;63.10;6.30;;;;;;;;;;5051493;28;20227;-66
2023/02/26 02:46:16;;;;;;;62.97;6.32;;;;;;;;;;5051771;28;20225;-66
2023/02/26 02:48:46;;;;;;;60.97;6.18;;;;;;;;;;5051189;28;20212;-66
2023/02/26 02:51:16;;;;;;;61.40;6.10;;;;;;;;;;5051511;28;20228;-66
2023/02/26 02:53:46;;;;;;;60.88;6.05;;;;;;;;;;5049975;28;20267;-66
2023/02/26 02:56:16;;;;;;;62.58;6.55;;;;;;;;;;5051269;28;20226;-66
2023/02/26 02:58:45;;;;;;;61.28;6.63;;;;;;;;;;5051033;28;20212;-66
2023/02/26 03:01:14;;;;;;;61.60;6.43;;;;;;;;;;5051856;28;20213;-66
2023/02/26 03:03:44;;;;;;;61.88;6.30;;;;;;;;;;5051518;28;20202;-66
2023/02/26 03:06:12;;;;;;;62.28;6.95;;;;;;;;;;5051225;28;20706;-66
2023/02/26 03:08:40;;;;;;;60.60;5.78;;;;;;;;;;5051367;28;20205;-66
2023/02/26 03:11:08;;;;;;;61.28;6.32;;;;;;;;;;5051648;28;20206;-66
2023/02/26 03:13:35;;;;;;;65.57;6.68;;;;;;;;;;5051341;28;20666;-66
2023/02/26 03:16:14;;;;;;;62.90;6.55;;;;;;;;;;5051266;28;20226;-66
2023/02/26 03:18:47;;;;;;;62.03;6.38;;;;;;;;;;5050944;28;20209;-66
2023/02/26 03:21:18;;;;;;;62.20;7.03;;;;;;;;;;5051462;28;20209;-66
2023/02/26 03:23:47;;;;;;;63.33;6.05;;;;;;;;;;5051145;28;20704;-66
2023/02/26 03:26:16;;;;;;;70.78;6.90;;;;;;;;;;5051213;28;20229;-66
2023/02/26 03:28:48;;;;;;;63.08;6.45;;;;;;;;;;5050924;28;20220;-66
2023/02/26 03:31:17;;;;;;;62.45;6.43;;;;;;;;;;5051128;28;20214;-66
2023/02/26 03:33:48;;;;;;;61.95;7.43;;;;;;;;;;5051511;28;20209;-66
2023/02/26 03:36:19;;;;;;;61.92;6.93;;;;;;;;;;5051552;28;20226;-66
2023/02/26 03:38:48;;;;;;;61.03;6.20;;;;;;;;;;5054961;28;20206;-66
2023/02/26 03:41:18;;;;;;;64.63;7.55;;;;;;;;;;5054900;28;20205;-66
2023/02/26 03:43:46;;;;;;;63.08;8.00;;;;;;;;;;5054888;28;20216;-65
2023/02/26 03:46:15;;;;;;;61.75;7.20;;;;;;;;;;5068286;28;20599;-66
2023/02/26 03:48:43;;;;;;;62.30;6.55;;;;;;;;;;5074680;28;20205;-66
2023/02/26 03:51:11;;;;;;;62.35;6.43;;;;;;;;;;5074870;28;20205;-66
2023/02/26 03:53:43;;;;;;;63.50;6.15;;;;;;;;;;5074714;28;20212;-66
2023/02/26 03:56:14;;;;;;;64.50;6.75;;;;;;;;;;5074452;28;20225;-66
2023/02/26 03:58:41;;;;;;;61.35;7.35;;;;;;;;;;5074233;28;20209;-66
2023/02/26 04:01:12;;;;;;;63.13;6.47;;;;;;;;;;5074517;28;20205;-66
2023/02/26 04:03:43;;;;;;;62.88;7.10;;;;;;;;;;5074523;28;20209;-66
2023/02/26 04:06:10;;;;;;;63.70;7.35;;;;;;;;;;5074452;28;20240;-66
2023/02/26 04:08:37;;;;;;;60.65;5.70;;;;;;;;;;5074012;28;20692;-66
2023/02/26 04:11:07;;;;;;;62.75;6.72;;;;;;;;;;5074580;28;20201;-66
2023/02/26 04:13:34;;;;;;;61.63;6.03;;;;;;;;;;5074327;28;20759;-66
2023/02/26 04:16:01;;;;;;;61.72;6.95;;;;;;;;;;5074117;28;20225;-66
2023/02/26 04:18:28;;;;;;;63.15;6.63;;;;;;;;;;5074249;28;20205;-66
2023/02/26 04:20:55;;;;;;;69.82;10.55;;;;;;;;;;5074068;28;20205;-66
2023/02/26 04:23:22;;;;;;;67.70;8.63;;;;;;;;;;5074010;28;20216;-66
2023/02/26 04:25:49;;;;;;;66.00;8.00;;;;;;;;;;5074155;28;20229;-66
2023/02/26 04:28:18;;;;;;;67.18;8.27;;;;;;;;;;5074103;28;20212;-66
2023/02/26 04:30:45;;;;;;;63.75;6.97;;;;;;;;;;5074024;28;20462;-66
2023/02/26 04:33:14;;;;;;;65.18;8.25;;;;;;;;;;5074205;28;20205;-66
2023/02/26 04:35:41;;;;;;;70.70;8.10;;;;;;;;;;5073751;28;20225;-66
2023/02/26 04:38:08;;;;;;;66.93;9.60;;;;;;;;;;5074300;28;20209;-66
2023/02/26 04:40:35;;;;;;;68.40;9.18;;;;;;;;;;5073677;28;20216;-66
2023/02/26 04:43:03;;;;;;;66.25;8.90;;;;;;;;;;5073965;28;20205;-66
2023/02/26 04:45:31;;;;;;;72.28;10.63;;;;;;;;;;5073691;28;20282;-66
2023/02/26 04:47:58;;;;;;;69.35;9.75;;;;;;;;;;5072521;28;20236;-66
2023/02/26 04:50:25;;;;;;;71.82;10.00;;;;;;;;;;5073427;28;20211;-66
2023/02/26 04:52:52;;;;;;;68.25;7.97;;;;;;;;;;5073832;28;20201;-66
2023/02/26 04:55:19;;;;;;;70.68;8.27;;;;;;;;;;5073549;28;20743;-66
2023/02/26 04:57:46;;;;;;;63.10;8.05;;;;;;;;;;5073681;28;20201;-66
2023/02/26 05:00:15;;;;;;;71.45;9.45;;;;;;;;;;5073179;28;20212;-66
2023/02/26 05:02:43;;;;;;;71.38;8.77;;;;;;;;;;5073631;28;20205;-66
2023/02/26 05:05:11;;;;;;;63.58;7.35;;;;;;;;;;5073231;28;20255;-65
2023/02/26 05:07:38;;;;;;;66.43;7.43;;;;;;;;;;5073436;28;20677;-66
2023/02/26 05:10:06;;;;;;;63.97;7.68;;;;;;;;;;5073723;28;20513;-66
2023/02/26 05:12:33;;;;;;;63.25;7.45;;;;;;;;;;5073344;28;20731;-66
2023/02/26 05:15:00;;;;;;;65.47;7.07;;;;;;;;;;5073141;28;20221;-66
2023/02/26 05:17:27;;;;;;;64.68;7.68;;;;;;;;;;5073105;28;20205;-66
2023/02/26 05:19:55;;;;;;;71.57;9.48;;;;;;;;;;5072841;28;20669;-66
2023/02/26 05:22:23;;;;;;;65.22;8.45;;;;;;;;;;5073042;28;20209;-66
2023/02/26 05:24:50;;;;;;;69.72;9.27;;;;;;;;;;5073225;28;20711;-66
2023/02/26 05:27:17;;;;;;;91.15;17.10;;;;;;;;;;5073217;28;20204;-66
2023/02/26 05:29:45;;;;;;;78.47;13.50;;;;;;;;;;5072564;28;20213;-65
2023/02/26 05:32:12;;;;;;;78.72;14.25;;;;;;;;;;5072869;28;20209;-66
2023/02/26 05:34:39;;;;;;;76.25;13.02;;;;;;;;;;5072935;28;20205;-66
2023/02/26 05:37:08;;;;;;;87.82;18.20;;;;;;;;;;5072658;28;20205;-66
2023/02/26 05:39:35;;;;;;;90.38;21.33;;;;;;;;;;5072464;28;20205;-66
2023/02/26 05:42:02;;;;;;;77.65;13.27;;;;;;;;;;5072691;28;20205;-66
2023/02/26 05:44:29;;;;;;;76.55;12.40;;;;;;;;;;5073818;28;20594;-66
2023/02/26 05:46:56;;;;;;;72.25;11.13;;;;;;;;;;5077599;28;20207;-65
2023/02/26 05:49:23;;;;;;;70.55;10.85;;;;;;;;;;5077909;28;20201;-65
2023/02/26 05:51:50;;;;;;;73.50;9.15;;;;;;;;;;5077931;28;20207;-65
2023/02/26 05:54:19;;;;;;;66.07;8.68;;;;;;;;;;5077174;28;20211;-65
2023/02/26 05:56:46;;;;;;;66.72;8.82;;;;;;;;;;5072795;28;20229;-66
2023/02/26 05:59:13;;;;;;;66.57;8.75;;;;;;;;;;5071569;28;20213;-66
2023/02/26 06:01:41;;;;;;;69.72;8.93;;;;;;;;;;5072219;28;20235;-66
2023/02/26 06:04:08;;;;;;;63.75;8.20;;;;;;;;;;5072403;28;20208;-66
2023/02/26 06:06:36;;;;;;;84.28;18.70;;;;;;;;;;5072228;28;20228;-66
2023/02/26 06:09:03;;;;;;;91.57;28.73;;;;;;;;;;5071880;28;20204;-66
2023/02/26 06:11:32;;;;;;;70.90;12.55;;;;;;;;;;5071990;28;20201;-65
2023/02/26 06:13:59;;;;;;;69.30;10.80;;;;;;;;;;5072235;28;20201;-66
2023/02/26 06:16:26;;;;;;;70.05;9.05;;;;;;;;;;5071917;28;20251;-66
2023/02/26 06:18:53;;;;;;;63.88;8.00;;;;;;;;;;5071792;28;20212;-66
2023/02/26 06:21:20;;;;;;;65.68;9.32;;;;;;;;;;5072049;28;20205;-66
2023/02/26 06:23:47;;;;;;;66.68;9.00;;;;;;;;;;5071838;28;20231;-66
2023/02/26 06:26:14;;;;;;;66.80;9.55;;;;;;;;;;5071685;28;20223;-66
2023/02/26 06:28:43;;;;;;;66.88;10.07;;;;;;;;;;5071463;28;20212;-66
2023/02/26 06:31:10;;;;;;;69.20;10.70;;;;;;;;;;5072113;28;20216;-66
2023/02/26 06:33:37;;;;;;;67.38;8.52;;;;;;;;;;5071909;28;20205;-66
2023/02/26 06:36:05;;;;;;;69.50;9.80;;;;;;;;;;5071599;28;20239;-66
2023/02/26 06:38:32;;;;;;;71.13;8.15;;;;;;;;;;5071531;28;20215;-66
2023/02/26 06:40:59;;;;;;;67.22;9.57;;;;;;;;;;5071539;28;20209;-66
2023/02/26 06:43:26;;;;;;;70.13;9.10;;;;;;;;;;5071809;28;20553;-66
2023/02/26 06:45:57;;;;;;;65.40;9.38;;;;;;;;;;5071630;28;20225;-66
2023/02/26 06:48:24;;;;;;;64.72;8.23;;;;;;;;;;5071638;28;20587;-66
2023/02/26 06:50:51;;;;;;;64.20;9.15;;;;;;;;;;5071341;28;20201;-66
2023/02/26 06:53:18;;;;;;;66.22;10.70;;;;;;;;;;5071556;28;20287;-66
2023/02/26 06:55:46;;;;;;;64.93;10.00;;;;;;;;;;5071388;28;20224;-66
2023/02/26 06:58:13;;;;;;;61.63;7.30;;;;;;;;;;5071425;28;20216;-66
2023/02/26 07:00:40;;;;;;;63.85;8.70;;;;;;;;;;5071513;28;20585;-66
2023/02/26 07:03:10;;;;;;;63.45;7.63;;;;;;;;;;5071585;28;20205;-66
2023/02/26 07:05:38;;;;;;;66.90;9.52;;;;;;;;;;5071367;28;20221;-66
2023/02/26 07:08:05;;;;;;;67.55;8.45;;;;;;;;;;5071373;28;20205;-66
2023/02/26 07:10:32;;;;;;;63.78;7.97;;;;;;;;;;5071296;28;20227;-66
2023/02/26 07:12:59;;;;;;;64.80;7.63;;;;;;;;;;5075240;28;20757;-66
2023/02/26 07:15:27;;;;;;;67.43;8.73;;;;;;;;;;5075370;28;20594;-66
2023/02/26 07:17:54;;;;;;;64.50;6.75;;;;;;;;;;5075391;28;20201;-66
2023/02/26 07:20:23;;;;;;;66.32;8.48;;;;;;;;;;5075088;28;20692;-66
2023/02/26 07:22:50;;;;;;;61.17;6.95;;;;;;;;;;5075273;28;20213;-66
2023/02/26 07:25:17;;;;;;;62.95;7.50;;;;;;;;;;5075404;28;20222;-66
2023/02/26 07:27:44;;;;;;;64.40;7.70;;;;;;;;;;5075318;28;20591;-66
2023/02/26 07:30:12;;;;;;;63.08;7.15;;;;;;;;;;5075235;28;20205;-66
2023/02/26 07:32:39;;;;;;;63.15;7.22;;;;;;;;;;5074991;28;20212;-66
2023/02/26 07:35:06;;;;;;;62.63;7.82;;;;;;;;;;5074789;28;20717;-66
2023/02/26 07:37:35;;;;;;;69.50;7.20;;;;;;;;;;5075174;28;20211;-66
2023/02/26 07:40:02;;;;;;;61.92;6.35;;;;;;;;;;5074917;28;20646;-66
2023/02/26 07:42:29;;;;;;;64.82;7.18;;;;;;;;;;5074909;28;20598;-66
2023/02/26 07:44:57;;;;;;;63.15;7.70;;;;;;;;;;5074876;28;20240;-66
2023/02/26 07:47:24;;;;;;;67.03;8.77;;;;;;;;;;5074639;28;20213;-66
2023/02/26 07:49:51;;;;;;;68.43;6.60;;;;;;;;;;5074673;28;20212;-66
2023/02/26 07:52:18;;;;;;;61.88;7.28;;;;;;;;;;5074902;28;20206;-66
2023/02/26 07:54:46;;;;;;;63.28;7.05;;;;;;;;;;5074754;28;20727;-66
2023/02/26 07:57:13;;;;;;;62.38;7.10;;;;;;;;;;5074610;28;20234;-66
2023/02/26 07:59:40;;;;;;;64.47;6.95;;;;;;;;;;5074339;28;20693;-66
2023/02/26 08:02:08;;;;;;;61.58;6.75;;;;;;;;;;5074480;28;20208;-66
2023/02/26 08:04:35;;;;;;;62.90;5.90;;;;;;;;;;5074796;28;20664;-66
2023/02/26 08:07:02;;;;;;;64.07;6.45;;;;;;;;;;5074628;28;20211;-66
2023/02/26 08:09:30;;;;;;;61.10;6.30;;;;;;;;;;5074172;28;20203;-66
2023/02/26 08:11:59;;;;;;;63.15;6.72;;;;;;;;;;5074569;28;20242;-66
2023/02/26 08:14:26;;;;;;;63.05;5.55;;;;;;;;;;5074184;28;20211;-66
2023/02/26 08:16:53;;;;;;;59.70;5.30;;;;;;;;;;5074158;28;20222;-66
2023/02/26 08:19:20;;;;;;;60.20;5.65;;;;;;;;;;5074128;28;20210;-66
2023/02/26 08:21:47;;;;;;;60.78;5.32;;;;;;;;;;5074517;28;20203;-66
2023/02/26 08:24:14;;;;;;;60.35;5.25;;;;;;;;;;5074159;28;20214;-66
2023/02/26 08:26:41;;;;;;;60.28;5.43;;;;;;;;;;5074297;28;20218;-66
2023/02/26 08:29:10;;;;;;;61.08;5.25;;;;;;;;;;5073545;28;20208;-66
2023/02/26 08:31:37;;;;;;;64.90;5.53;;;;;;;;;;5074419;28;20307;-66
2023/02/26 08:34:04;;;;;;;65.15;4.70;;;;;;;;;;5074145;28;20212;-66
2023/02/26 08:36:32;;;;;;;61.10;4.60;;;;;;;;;;5073978;28;20240;-67
2023/02/26 08:38:59;;;;;;;60.97;5.32;;;;;;;;;;5073723;28;20207;-66
2023/02/26 08:41:29;;;;;;;60.28;5.30;;;;;;;;;;5073971;28;20750;-66
2023/02/26 08:43:56;;;;;;;60.30;4.95;;;;;;;;;;5073770;28;20207;-66
2023/02/26 08:46:24;;;;;;;59.80;4.97;;;;;;;;;;5073994;28;20310;-66
2023/02/26 08:48:52;;;;;;;63.78;5.63;;;;;;;;;;5073683;28;20201;-66
2023/02/26 08:51:19;;;;;;;68.47;5.53;;;;;;;;;;5073788;28;20210;-66
2023/02/26 08:53:46;;;;;;;60.95;5.10;;;;;;;;;;5074090;28;20207;-66
2023/02/26 08:56:13;;;;;;;60.00;4.80;;;;;;;;;;5073375;28;20232;-66
2023/02/26 08:58:40;;;;;;;60.15;4.80;;;;;;;;;;5073582;28;20211;-66
2023/02/26 09:01:08;;;;;;;61.35;4.78;;;;;;;;;;5073475;28;20203;-66
2023/02/26 09:03:36;;;;;;;60.95;4.53;;;;;;;;;;5073611;28;20209;-66
2023/02/26 09:06:03;;;;;;;61.25;4.90;;;;;;;;;;5073377;28;20224;-66
2023/02/26 09:08:32;;;;;;;60.20;4.50;;;;;;;;;;5073169;28;20239;-66
2023/02/26 09:11:00;;;;;;;60.03;5.43;;;;;;;;;;5073759;28;20247;-66
2023/02/26 09:13:27;;;;;;;60.08;5.20;;;;;;;;;;5073380;28;20210;-66
2023/02/26 09:15:54;;;;;;;61.17;4.53;;;;;;;;;;5073246;28;20232;-66
2023/02/26 09:18:21;;;;;;;62.35;5.05;;;;;;;;;;5073019;28;20223;-66
2023/02/26 09:20:50;;;;;;;60.10;4.65;;;;;;;;;;5073026;28;20203;-66
2023/02/26 09:23:17;;;;;;;64.28;5.00;;;;;;;;;;5072922;28;20686;-66
2023/02/26 09:25:44;;;;;;;59.80;4.40;;;;;;;;;;5073260;28;20237;-66
2023/02/26 09:28:11;;;;;;;58.70;4.10;;;;;;;;;;5073168;28;20214;-66
2023/02/26 09:30:38;;;;;;;61.97;4.95;;;;;;;;;;5073070;28;20219;-66
2023/02/26 09:33:05;;;;;;;60.70;5.22;;;;;;;;;;5073112;28;20211;-66
2023/02/26 09:35:33;;;;;;;59.30;4.38;;;;;;;;;;5072015;28;20323;-66
2023/02/26 09:38:02;;;;;;;58.85;4.30;;;;;;;;;;5072623;28;20208;-66
2023/02/26 09:40:32;;;;;;;59.55;4.32;;;;;;;;;;5072855;28;20291;-66
2023/02/26 09:43:20;;;;;;;60.60;4.35;;;;;;;;;;5072900;28;20206;-66
2023/02/26 09:45:49;;;;;;;61.58;5.32;;;;;;;;;;5072697;28;20247;-66
2023/02/26 09:48:17;;;;;;;58.85;4.47;;;;;;;;;;5072463;28;20208;-66
2023/02/26 09:50:46;;;;;;;59.47;4.65;;;;;;;;;;5072757;28;20208;-66
2023/02/26 09:53:17;;;;;;;60.42;4.80;;;;;;;;;;5072362;28;20217;-66
2023/02/26 09:55:46;;;;;;;59.30;4.60;;;;;;;;;;5072297;28;20604;-66
2023/02/26 09:58:17;;;;;;;60.40;4.55;;;;;;;;;;5072343;28;20576;-66
2023/02/26 10:00:48;;;;;;;58.85;3.70;;;;;;;;;;5072008;28;20310;-66
2023/02/26 10:03:22;;;;;;;58.83;4.50;;;;;;;;;;5072510;28;20331;-66
2023/02/26 10:05:57;;;;;;;62.20;4.78;;;;;;;;;;5072599;28;20654;-66
2023/02/26 10:08:29;;;;;;;61.42;4.35;;;;;;;;;;5072216;28;20219;-66
2023/02/26 10:11:01;;;;;;;59.15;4.03;;;;;;;;;;5071953;28;20203;-66
2023/02/26 10:13:32;;;;;;;60.28;4.70;;;;;;;;;;5072024;28;20302;-66
2023/02/26 10:16:02;;;;;;;59.40;5.00;;;;;;;;;;5072023;28;20236;-66
2023/02/26 10:18:31;;;;;;;60.20;4.50;;;;;;;;;;5072217;28;20209;-66
2023/02/26 10:21:00;;;;;;;61.10;5.30;;;;;;;;;;5071947;28;20210;-66
2023/02/26 10:23:31;;;;;;;61.70;5.20;;;;;;;;;;5071879;28;20704;-66
2023/02/26 10:26:02;;;;;;;62.30;5.05;;;;;;;;;;5071958;28;20228;-66
2023/02/26 10:28:36;;;;;;;59.33;4.45;;;;;;;;;;5071768;28;20212;-66
2023/02/26 10:31:05;;;;;;;59.58;4.85;;;;;;;;;;5072030;28;20208;-66
2023/02/26 10:33:37;;;;;;;59.22;4.72;;;;;;;;;;5072008;28;20205;-66
2023/02/26 10:36:09;;;;;;;63.30;4.50;;;;;;;;;;5071532;28;20716;-67
2023/02/26 10:38:38;;;;;;;58.00;3.90;;;;;;;;;;5071749;28;20223;-66
2023/02/26 10:41:06;;;;;;;64.07;4.35;;;;;;;;;;5071970;28;20201;-66
2023/02/26 10:43:36;;;;;;;60.65;4.50;;;;;;;;;;5071794;28;20674;-67
2023/02/26 10:46:10;;;;;;;66.53;8.23;;;;;;;;;;5070854;28;20238;-66
2023/02/26 10:48:52;;;;;;;60.83;4.82;;;;;;;;;;5071342;28;20385;-66
2023/02/26 10:51:20;;;;;;;59.30;4.22;;;;;;;;;;5069785;28;20673;-66
2023/02/26 10:53:51;;;;;;;59.75;4.88;;;;;;;;;;5071735;28;20201;-67
2023/02/26 10:56:20;;;;;;;58.90;4.47;;;;;;;;;;5071460;28;20229;-66
2023/02/26 10:58:48;;;;;;;61.15;5.10;;;;;;;;;;5071307;28;20707;-66
2023/02/26 11:01:17;;;;;;;59.28;5.20;;;;;;;;;;5071480;28;20208;-66
2023/02/26 11:03:46;;;;;;;62.70;4.78;;;;;;;;;;5072042;28;20212;-66
2023/02/26 11:06:17;;;;;;;58.92;4.10;;;;;;;;;;5071861;28;20237;-66
2023/02/26 11:08:46;;;;;;;59.97;4.00;;;;;;;;;;5071305;28;20300;-66
2023/02/26 11:11:34;;;;;;;58.80;4.20;;;;;;;;;;5071476;28;20212;-67
2023/02/26 11:14:02;;;;;;;58.70;4.60;;;;;;;;;;5071716;28;20466;-67
2023/02/26 11:16:29;;;;;;;59.40;3.80;;;;;;;;;;5071503;28;20484;-67
2023/02/26 11:18:59;;;;;;;58.20;3.33;;;;;;;;;;5071064;28;20443;-67
2023/02/26 11:21:29;;;;;;;58.40;3.40;;;;;;;;;;5071569;28;20469;-67
2023/02/26 11:23:59;;;;;;;58.80;3.70;;;;;;;;;;5071496;28;20467;-67
2023/02/26 11:26:28;;;;;;;58.90;3.80;;;;;;;;;;5071328;28;20875;-67
2023/02/26 11:28:55;;;;;;;58.23;3.20;;;;;;;;;;5070846;28;20447;-67
2023/02/26 11:31:24;;;;;;;58.30;3.90;;;;;;;;;;5071464;28;20443;-67
2023/02/26 11:33:54;;;;;;;59.87;4.00;;;;;;;;;;5071285;28;20447;-67
2023/02/26 11:36:23;;;;;;;58.97;3.83;;;;;;;;;;5071026;28;20478;-67
2023/02/26 11:38:53;;;;;;;59.77;3.40;;;;;;;;;;5071075;28;20451;-67
2023/02/26 11:41:20;;;;;;;58.47;3.67;;;;;;;;;;5071496;28;20447;-67
2023/02/26 11:43:50;;;;;;;59.87;4.37;;;;;;;;;;5071361;28;20447;-67
2023/02/26 11:46:17;;;;;;;58.40;4.03;;;;;;;;;;5071080;28;20467;-68
2023/02/26 11:48:46;;;;;;;60.45;4.20;;;;;;;;;;5070749;28;20459;-67
2023/02/26 11:51:15;;;;;;;59.20;4.65;;;;;;;;;;5071006;28;20220;-66
2023/02/26 11:53:44;;;;;;;62.25;6.22;;;;;;;;;;5071391;28;20595;-66
2023/02/26 11:56:12;;;;;;;60.83;4.40;;;;;;;;;;5070953;28;20787;-66
2023/02/26 11:58:40;;;;;;;62.88;4.10;;;;;;;;;;5073301;28;20221;-66
2023/02/26 12:01:10;;;;;;;58.88;4.10;;;;;;;;;;5074789;28;20216;-66
2023/02/26 12:03:39;;;;;;;59.05;4.57;;;;;;;;;;5074428;28;20694;-66
2023/02/26 12:06:07;;;;;;;59.90;4.32;;;;;;;;;;5074473;28;20225;-67
2023/02/26 12:08:37;;;;;;;60.70;4.72;;;;;;;;;;5074593;28;20205;-67
2023/02/26 12:11:11;;;;;;;59.60;4.30;;;;;;;;;;5074763;28;20205;-67
2023/02/26 12:13:41;;;;;;;59.58;5.10;;;;;;;;;;5074762;28;20205;-67
2023/02/26 12:16:14;;;;;;;58.50;4.13;;;;;;;;;;5074702;28;20655;-67
2023/02/26 12:18:48;;;;;;;62.38;4.60;;;;;;;;;;5074302;28;20252;-67
2023/02/26 12:21:28;;;;;;;59.22;4.35;;;;;;;;;;5074466;28;20308;-67
2023/02/26 12:24:15;;;;;;;60.60;4.40;;;;;;;;;;5074447;28;20213;-66
2023/02/26 12:26:46;;;;;;;59.55;4.72;;;;;;;;;;5074285;28;20220;-66
2023/02/26 12:29:22;;;;;;;61.03;5.50;;;;;;;;;;5074298;28;20235;-66
2023/02/26 12:32:00;;;;;;;58.45;4.15;;;;;;;;;;5074556;28;20208;-66
2023/02/26 12:34:37;;;;;;;59.60;4.45;;;;;;;;;;5074270;28;20227;-66
2023/02/26 12:37:11;;;;;;;59.33;4.30;;;;;;;;;;5074099;28;20228;-66
2023/02/26 12:39:44;;;;;;;60.25;4.85;;;;;;;;;;5073904;28;20220;-67
2023/02/26 12:42:18;;;;;;;58.90;4.50;;;;;;;;;;5074058;28;20207;-67
2023/02/26 12:45:00;;;;;;;58.92;4.13;;;;;;;;;;5074367;28;20229;-67
2023/02/26 12:47:42;;;;;;;58.75;3.78;;;;;;;;;;5071975;28;20224;-67
2023/02/26 12:50:18;;;;;;;58.60;4.03;;;;;;;;;;5073848;28;20300;-67
2023/02/26 12:53:18;;;;;;;59.30;4.20;;;;;;;;;;5073882;28;20703;-66
2023/02/26 12:55:52;;;;;;;61.35;4.68;;;;;;;;;;5011738;28;20601;-67
2023/02/26 12:58:30;;;;;;;58.65;3.33;;;;;;;;;;5011637;28;20227;-67
2023/02/26 13:01:08;;;;;;;59.35;3.90;;;;;;;;;;5011647;28;20261;-67
2023/02/26 13:04:03;;;;;;;58.78;3.92;;;;;;;;;;5011651;28;20211;-66
2023/02/26 13:06:45;;;;;;;61.90;3.80;;;;;;;;;;5011349;28;20234;-67
2023/02/26 13:09:19;;;;;;;59.30;4.20;;;;;;;;;;5007913;28;20206;-67
2023/02/26 13:11:51;;;;;;;60.67;4.63;;;;;;;;;;5011493;28;20525;-67
2023/02/26 13:14:30;;;;;;;59.70;4.23;;;;;;;;;;5011495;28;20977;-67
2023/02/26 13:17:00;;;;;;;58.95;3.70;;;;;;;;;;5011138;28;20446;-67
2023/02/26 13:19:36;;;;;;;59.67;3.70;;;;;;;;;;5010889;28;20334;-67
2023/02/26 13:22:05;;;;;;;59.38;4.32;;;;;;;;;;5011145;28;20213;-67
2023/02/26 13:24:35;;;;;;;58.58;4.38;;;;;;;;;;5010858;28;20215;-67
2023/02/26 13:27:03;;;;;;;58.40;4.07;;;;;;;;;;5050977;28;20205;-67
2023/02/26 13:29:33;;;;;;;58.55;3.65;;;;;;;;;;5072940;28;20300;-68
2023/02/26 13:32:01;;;;;;;58.92;3.67;;;;;;;;;;5073193;28;20205;-67
2023/02/26 13:34:43;;;;;;;58.20;3.47;;;;;;;;;;5072864;28;20692;-67
2023/02/26 13:37:15;;;;;;;58.57;3.70;;;;;;;;;;5072770;28;20227;-66
2023/02/26 13:39:46;;;;;;;58.33;3.60;;;;;;;;;;5072517;28;20936;-67
2023/02/26 13:42:21;;;;;;;58.08;3.70;;;;;;;;;;5072935;28;20457;-66
2023/02/26 13:44:53;;;;;;;58.20;3.30;;;;;;;;;;5072758;28;20235;-67
2023/02/26 13:47:28;;;;;;;58.10;3.57;;;;;;;;;;5072885;28;20589;-67
2023/02/26 13:50:03;;;;;;;58.10;3.40;;;;;;;;;;5072089;28;20447;-67
2023/02/26 13:52:31;;;;;;;58.00;3.20;;;;;;;;;;5072688;28;20524;-67
2023/02/26 13:54:58;;;;;;;58.47;3.57;;;;;;;;;;5072544;28;20467;-67
2023/02/26 13:57:36;;;;;;;58.55;3.50;;;;;;;;;;5072984;28;20483;-67
2023/02/26 14:00:11;;;;;;;58.28;3.80;;;;;;;;;;5072088;28;20623;-68
2023/02/26 14:02:47;;;;;;;64.80;3.70;;;;;;;;;;5072189;28;20205;-67
2023/02/26 14:05:35;;;;;;;58.72;4.00;;;;;;;;;;5072414;28;20225;-67
2023/02/26 14:08:18;;;;;;;58.00;3.25;;;;;;;;;;5072561;28;20284;-67
2023/02/26 14:10:46;;;;;;;58.22;3.40;;;;;;;;;;5071946;28;20201;-67
2023/02/26 14:13:15;;;;;;;57.53;3.30;;;;;;;;;;5072477;28;20577;-67
2023/02/26 14:15:49;;;;;;;59.40;3.43;;;;;;;;;;5072088;28;21009;-67
2023/02/26 14:18:30;;;;;;;58.10;3.53;;;;;;;;;;5072195;28;20475;-67
2023/02/26 14:21:12;;;;;;;58.57;3.43;;;;;;;;;;5071995;28;20505;-67
2023/02/26 14:23:40;;;;;;;60.38;3.10;;;;;;;;;;5071741;28;20807;-67
2023/02/26 14:26:13;;;;;;;59.13;3.65;;;;;;;;;;5071976;28;20229;-66
2023/02/26 14:28:42;;;;;;;58.58;3.42;;;;;;;;;;5071923;28;20213;-66
2023/02/26 14:31:16;;;;;;;58.30;3.60;;;;;;;;;;5072011;28;20211;-66
2023/02/26 14:33:45;;;;;;;58.80;3.60;;;;;;;;;;5071811;28;20240;-67
2023/02/26 14:36:17;;;;;;;58.65;3.85;;;;;;;;;;5072183;28;20225;-66
2023/02/26 14:38:46;;;;;;;58.65;3.33;;;;;;;;;;5071629;28;20239;-66
2023/02/26 14:41:20;;;;;;;57.60;3.22;;;;;;;;;;5071915;28;20240;-67
2023/02/26 14:43:53;;;;;;;58.70;3.90;;;;;;;;;;5071693;28;20208;-67
2023/02/26 14:46:20;;;;;;;58.30;3.20;;;;;;;;;;5071690;28;20550;-66